createdAt,value
2018-03-27T00:00:08.922Z,1.00
2018-03-27T00:01:07.934Z,1.00
2018-03-27T00:02:07.784Z,0.00
2018-03-27T00:03:08.345Z,0.00
2018-03-27T00:04:07.810Z,0.00
2018-03-27T00:05:07.718Z,0.00
2018-03-27T00:06:07.814Z,1.00
2018-03-27T00:07:07.834Z,1.00
2018-03-27T00:08:07.742Z,1.00
2018-03-27T00:09:07.839Z,0.00
2018-03-27T00:10:07.867Z,0.00
2018-03-27T00:11:07.846Z,0.00
2018-03-27T00:12:07.750Z,0.00
2018-03-27T00:13:07.874Z,0.00
2018-03-27T00:14:07.879Z,0.00
2018-03-27T00:15:07.886Z,0.00
2018-03-27T00:16:07.782Z,0.00
2018-03-27T00:17:07.798Z,0.00
2018-03-27T00:18:07.799Z,1.00
2018-03-27T00:19:07.806Z,1.00
2018-03-27T00:20:07.825Z,0.00
2018-03-27T00:21:07.812Z,1.00
2018-03-27T00:22:07.830Z,3.00
2018-03-27T00:23:07.850Z,8.00
2018-03-27T00:24:07.837Z,3.00
2018-03-27T00:25:07.851Z,2.00
2018-03-27T00:26:07.859Z,1.00
2018-03-27T00:27:07.857Z,1.00
2018-03-27T00:28:07.962Z,0.00
2018-03-27T00:29:07.878Z,0.00
2018-03-27T00:30:07.881Z,0.00
2018-03-27T00:31:07.814Z,1.00
2018-03-27T00:32:07.798Z,0.00
2018-03-27T00:33:07.854Z,0.00
2018-03-27T00:34:07.810Z,1.00
2018-03-27T00:35:07.818Z,1.00
2018-03-27T00:36:07.833Z,0.00
2018-03-27T00:37:07.838Z,4.00
2018-03-27T00:38:07.837Z,4.00
2018-03-27T00:39:07.854Z,5.00
2018-03-27T00:40:07.859Z,6.00
2018-03-27T00:41:07.915Z,6.00
2018-03-27T00:42:07.879Z,6.00
2018-03-27T00:43:07.874Z,1.00
2018-03-27T00:44:07.886Z,2.00
2018-03-27T00:45:07.931Z,1.00
2018-03-27T00:46:07.698Z,0.00
2018-03-27T00:47:07.801Z,2.00
2018-03-27T00:48:07.808Z,2.00
2018-03-27T00:49:07.825Z,2.00
2018-03-27T00:50:07.839Z,0.00
2018-03-27T00:51:07.835Z,2.00
2018-03-27T00:52:07.844Z,11.00
2018-03-27T00:53:07.851Z,1.00
2018-03-27T00:54:07.854Z,4.00
2018-03-27T00:55:07.865Z,1.00
2018-03-27T00:56:07.873Z,4.00
2018-03-27T00:57:07.877Z,3.00
2018-03-27T00:58:07.891Z,1.00
2018-03-27T00:59:07.889Z,0.00
2018-03-27T01:00:09.037Z,0.00
2018-03-27T01:01:07.904Z,0.00
2018-03-27T01:02:07.877Z,1.00
2018-03-27T01:03:07.814Z,1.00
2018-03-27T01:04:07.826Z,0.00
2018-03-27T01:05:07.825Z,2.00
2018-03-27T01:06:07.873Z,2.00
2018-03-27T01:07:07.845Z,2.00
2018-03-27T01:08:07.857Z,4.00
2018-03-27T01:09:07.857Z,2.00
2018-03-27T01:10:07.873Z,8.00
2018-03-27T01:11:07.760Z,7.00
2018-03-27T01:12:10.511Z,5.00
2018-03-27T01:13:07.788Z,1.00
2018-03-27T01:14:07.900Z,4.00
2018-03-27T01:15:07.811Z,4.00
2018-03-27T01:16:07.815Z,3.00
2018-03-27T01:17:07.817Z,9.00
2018-03-27T01:18:07.927Z,6.00
2018-03-27T01:19:07.830Z,3.00
2018-03-27T01:20:07.842Z,4.00
2018-03-27T01:21:07.853Z,1.00
2018-03-27T01:22:07.859Z,0.00
2018-03-27T01:23:07.875Z,0.00
2018-03-27T01:24:07.874Z,2.00
2018-03-27T01:25:07.877Z,1.00
2018-03-27T01:26:07.784Z,0.00
2018-03-27T01:27:07.885Z,0.00
2018-03-27T01:28:07.897Z,0.00
2018-03-27T01:29:20.493Z,7.00
2018-03-27T01:30:20.495Z,5.00
2018-03-27T01:31:21.052Z,1.00
2018-03-27T01:32:25.516Z,0.00
2018-03-27T01:33:16.987Z,1.00
2018-03-27T01:34:07.848Z,3.00
2018-03-27T01:35:07.839Z,3.00
2018-03-27T01:36:07.754Z,5.00
2018-03-27T01:37:10.831Z,3.00
2018-03-27T01:38:07.865Z,1.00
2018-03-27T01:39:07.765Z,1.00
2018-03-27T01:40:07.885Z,1.00
2018-03-27T01:41:07.849Z,1.00
2018-03-27T01:42:07.899Z,0.00
2018-03-27T01:43:07.920Z,0.00
2018-03-27T01:44:10.474Z,2.00
2018-03-27T01:45:07.917Z,0.00
2018-03-27T01:46:07.937Z,1.00
2018-03-27T01:47:07.834Z,1.00
2018-03-27T01:48:07.939Z,1.00
2018-03-27T01:49:10.861Z,0.00
2018-03-27T01:50:07.863Z,0.00
2018-03-27T01:51:10.327Z,0.00
2018-03-27T01:52:07.866Z,0.00
2018-03-27T01:53:07.873Z,0.00
2018-03-27T01:54:07.886Z,0.00
2018-03-27T01:55:07.898Z,0.00
2018-03-27T01:56:07.906Z,0.00
2018-03-27T01:57:07.904Z,0.00
2018-03-27T01:58:07.922Z,0.00
2018-03-27T01:59:07.925Z,0.00
2018-03-27T02:00:09.063Z,0.00
2018-03-27T02:01:07.826Z,0.00
2018-03-27T02:02:07.837Z,0.00
2018-03-27T02:03:07.944Z,0.00
2018-03-27T02:04:07.850Z,0.00
2018-03-27T02:05:07.883Z,0.00
2018-03-27T02:06:10.417Z,0.00
2018-03-27T02:07:07.869Z,0.00
2018-03-27T02:08:07.886Z,0.00
2018-03-27T02:09:07.889Z,0.00
2018-03-27T02:10:07.892Z,0.00
2018-03-27T02:12:28.418Z,0.00
2018-03-27T02:13:28.397Z,1.00
2018-03-27T02:14:28.410Z,2.00
2018-03-27T02:15:28.411Z,2.00
2018-03-27T02:16:28.431Z,0.00
2018-03-27T02:17:28.428Z,1.00
2018-03-27T02:18:28.434Z,0.00
2018-03-27T02:19:28.342Z,1.00
2018-03-27T02:20:28.353Z,4.00
2018-03-27T02:21:28.350Z,3.00
2018-03-27T02:22:28.364Z,0.00
2018-03-27T02:23:28.478Z,0.00
2018-03-27T02:24:28.369Z,0.00
2018-03-27T02:25:28.381Z,0.00
2018-03-27T02:26:28.395Z,0.00
2018-03-27T02:27:28.404Z,3.00
2018-03-27T02:28:28.412Z,1.00
2018-03-27T02:29:30.834Z,1.00
2018-03-27T02:30:28.418Z,0.00
2018-03-27T02:31:28.435Z,0.00
2018-03-27T02:32:28.326Z,0.00
2018-03-27T02:33:28.439Z,0.00
2018-03-27T02:34:28.342Z,0.00
2018-03-27T02:35:28.468Z,0.00
2018-03-27T02:36:28.455Z,0.00
2018-03-27T02:37:28.266Z,0.00
2018-03-27T02:38:28.388Z,1.00
2018-03-27T02:39:28.382Z,0.00
2018-03-27T02:40:28.387Z,0.00
2018-03-27T02:41:29.720Z,0.00
2018-03-27T02:42:28.434Z,0.00
2018-03-27T02:43:28.406Z,0.00
2018-03-27T02:44:28.422Z,0.00
2018-03-27T02:45:28.443Z,0.00
2018-03-27T02:46:28.494Z,2.00
2018-03-27T02:47:28.443Z,1.00
2018-03-27T02:48:28.460Z,1.00
2018-03-27T02:49:28.460Z,0.00
2018-03-27T02:50:28.459Z,0.00
2018-03-27T02:51:28.290Z,0.00
2018-03-27T02:52:28.385Z,0.00
2018-03-27T02:53:28.392Z,0.00
2018-03-27T02:54:28.520Z,0.00
2018-03-27T02:55:28.409Z,0.00
2018-03-27T02:56:28.413Z,0.00
2018-03-27T02:57:28.417Z,0.00
2018-03-27T02:58:28.428Z,0.00
2018-03-27T02:59:28.430Z,0.00
2018-03-27T03:00:28.440Z,0.00
2018-03-27T03:01:28.454Z,0.00
2018-03-27T03:02:28.446Z,0.00
2018-03-27T03:03:28.350Z,0.00
2018-03-27T03:04:28.470Z,2.00
2018-03-27T03:05:28.479Z,0.00
2018-03-27T03:06:28.472Z,0.00
2018-03-27T03:07:28.382Z,0.00
2018-03-27T03:08:28.399Z,0.00
2018-03-27T03:09:28.390Z,2.00
2018-03-27T03:10:28.293Z,0.00
2018-03-27T03:11:29.650Z,0.00
2018-03-27T03:12:28.413Z,0.00
2018-03-27T03:13:28.422Z,0.00
2018-03-27T03:14:28.438Z,0.00
2018-03-27T03:15:28.433Z,0.00
2018-03-27T03:16:31.630Z,0.00
2018-03-27T03:17:28.458Z,0.00
2018-03-27T03:18:28.459Z,0.00
2018-03-27T03:19:28.466Z,0.00
2018-03-27T03:20:28.514Z,0.00
2018-03-27T03:21:28.478Z,0.00
2018-03-27T03:22:28.382Z,0.00
2018-03-27T03:23:28.398Z,0.00
2018-03-27T03:24:28.402Z,0.00
2018-03-27T03:25:28.401Z,0.00
2018-03-27T03:26:28.414Z,0.00
2018-03-27T03:27:28.425Z,1.00
2018-03-27T03:28:28.438Z,0.00
2018-03-27T03:29:28.434Z,1.00
2018-03-27T03:30:28.455Z,0.00
2018-03-27T03:31:28.451Z,0.00
2018-03-27T03:32:28.458Z,0.00
2018-03-27T03:33:28.465Z,0.00
2018-03-27T03:34:28.474Z,0.00
2018-03-27T03:35:28.477Z,0.00
2018-03-27T03:36:28.493Z,1.00
2018-03-27T03:37:28.403Z,0.00
2018-03-27T03:38:29.014Z,0.00
2018-03-27T03:39:28.405Z,0.00
2018-03-27T03:40:28.517Z,0.00
2018-03-27T03:41:28.416Z,0.00
2018-03-27T03:42:28.336Z,0.00
2018-03-27T03:43:31.206Z,0.00
2018-03-27T03:44:28.438Z,0.00
2018-03-27T03:45:28.449Z,3.00
2018-03-27T03:46:28.456Z,1.00
2018-03-27T03:47:28.466Z,0.00
2018-03-27T03:48:28.470Z,0.00
2018-03-27T03:49:28.485Z,0.00
2018-03-27T03:50:28.491Z,0.00
2018-03-27T03:51:28.493Z,0.00
2018-03-27T03:52:28.402Z,0.00
2018-03-27T03:53:28.416Z,0.00
2018-03-27T03:54:28.410Z,0.00
2018-03-27T03:55:28.417Z,0.00
2018-03-27T03:56:28.443Z,0.00
2018-03-27T03:57:28.429Z,0.00
2018-03-27T03:58:28.447Z,0.00
2018-03-27T03:59:28.449Z,0.00
2018-03-27T04:00:29.535Z,0.00
2018-03-27T04:01:28.465Z,0.00
2018-03-27T04:02:28.486Z,0.00
2018-03-27T04:03:28.478Z,0.00
2018-03-27T04:04:28.485Z,0.00
2018-03-27T04:05:28.498Z,0.00
2018-03-27T04:06:28.509Z,0.00
2018-03-27T04:07:28.411Z,1.00
2018-03-27T04:08:28.409Z,0.00
2018-03-27T04:09:28.421Z,0.00
2018-03-27T04:10:29.041Z,0.00
2018-03-27T04:11:29.670Z,0.00
2018-03-27T04:12:28.451Z,0.00
2018-03-27T04:13:28.455Z,0.00
2018-03-27T04:14:28.462Z,0.00
2018-03-27T04:15:28.461Z,0.00
2018-03-27T04:16:28.482Z,0.00
2018-03-27T04:17:28.486Z,0.00
2018-03-27T04:18:28.389Z,0.00
2018-03-27T04:19:28.489Z,0.00
2018-03-27T04:20:28.501Z,0.00
2018-03-27T04:21:28.518Z,0.00
2018-03-27T04:22:28.509Z,0.00
2018-03-27T04:23:28.426Z,0.00
2018-03-27T04:24:28.425Z,0.00
2018-03-27T04:25:28.443Z,0.00
2018-03-27T04:26:28.365Z,0.00
2018-03-27T04:27:28.447Z,0.00
2018-03-27T04:28:28.473Z,0.00
2018-03-27T04:29:31.102Z,0.00
2018-03-27T04:30:28.473Z,0.00
2018-03-27T04:31:28.496Z,0.00
2018-03-27T04:32:28.483Z,0.00
2018-03-27T04:33:28.526Z,0.00
2018-03-27T04:34:28.515Z,0.00
2018-03-27T04:35:28.506Z,0.00
2018-03-27T04:36:28.515Z,0.00
2018-03-27T04:37:28.526Z,0.00
2018-03-27T04:38:28.439Z,0.00
2018-03-27T04:39:28.428Z,0.00
2018-03-27T04:40:28.332Z,0.00
2018-03-27T04:41:28.449Z,0.00
2018-03-27T04:42:28.355Z,0.00
2018-03-27T04:43:28.467Z,0.00
2018-03-27T04:44:28.474Z,0.00
2018-03-27T04:45:28.555Z,0.00
2018-03-27T04:46:28.487Z,0.00
2018-03-27T04:47:28.494Z,0.00
2018-03-27T04:48:28.503Z,0.00
2018-03-27T04:49:28.506Z,0.00
2018-03-27T04:50:28.518Z,0.00
2018-03-27T04:51:28.523Z,0.00
2018-03-27T04:52:28.567Z,0.00
2018-03-27T04:53:28.433Z,0.00
2018-03-27T04:54:28.436Z,0.00
2018-03-27T04:55:28.354Z,0.00
2018-03-27T04:56:28.454Z,0.00
2018-03-27T04:57:31.391Z,0.00
2018-03-27T04:58:28.463Z,0.00
2018-03-27T04:59:28.482Z,1.00
2018-03-27T05:00:28.498Z,5.00
2018-03-27T05:01:28.497Z,5.00
2018-03-27T05:02:28.905Z,5.00
2018-03-27T05:03:28.505Z,6.00
2018-03-27T05:04:28.509Z,3.00
2018-03-27T05:05:28.522Z,2.00
2018-03-27T05:06:28.529Z,6.00
2018-03-27T05:07:28.542Z,4.00
2018-03-27T05:08:28.541Z,1.00
2018-03-27T05:09:28.445Z,0.00
2018-03-27T05:10:28.459Z,1.00
2018-03-27T05:11:29.690Z,3.00
2018-03-27T05:12:28.472Z,6.00
2018-03-27T05:13:29.714Z,7.00
2018-03-27T05:14:28.484Z,2.00
2018-03-27T05:15:28.494Z,2.00
2018-03-27T05:16:28.511Z,2.00
2018-03-27T05:17:28.495Z,2.00
2018-03-27T05:18:28.518Z,1.00
2018-03-27T05:19:28.524Z,1.00
2018-03-27T05:20:31.125Z,1.00
2018-03-27T05:21:37.266Z,2.00
2018-03-27T05:22:28.548Z,1.00
2018-03-27T05:23:28.466Z,4.00
2018-03-27T05:24:28.449Z,1.00
2018-03-27T05:25:28.366Z,4.00
2018-03-27T05:26:28.404Z,1.00
2018-03-27T05:27:28.470Z,1.00
2018-03-27T05:28:28.372Z,1.00
2018-03-27T05:29:28.501Z,0.00
2018-03-27T05:30:28.393Z,0.00
2018-03-27T05:31:28.402Z,0.00
2018-03-27T05:32:28.714Z,0.00
2018-03-27T05:33:28.421Z,0.00
2018-03-27T05:34:28.525Z,0.00
2018-03-27T05:35:28.548Z,2.00
2018-03-27T05:36:28.543Z,3.00
2018-03-27T05:37:28.575Z,0.00
2018-03-27T05:38:28.559Z,0.00
2018-03-27T05:39:28.462Z,0.00
2018-03-27T05:40:28.466Z,0.00
2018-03-27T05:41:28.749Z,1.00
2018-03-27T05:42:28.490Z,0.00
2018-03-27T05:43:28.490Z,0.00
2018-03-27T05:44:28.495Z,0.00
2018-03-27T05:45:28.515Z,1.00
2018-03-27T05:46:28.521Z,2.00
2018-03-27T05:47:28.542Z,2.00
2018-03-27T05:48:28.529Z,2.00
2018-03-27T05:49:28.533Z,3.00
2018-03-27T05:50:28.539Z,2.00
2018-03-27T05:51:28.553Z,0.00
2018-03-27T05:52:28.546Z,4.00
2018-03-27T05:53:28.556Z,1.00
2018-03-27T05:54:28.466Z,0.00
2018-03-27T05:55:28.481Z,0.00
2018-03-27T05:56:28.482Z,0.00
2018-03-27T05:57:28.515Z,0.00
2018-03-27T05:58:28.493Z,0.00
2018-03-27T05:59:30.885Z,0.00
2018-03-27T06:00:28.512Z,0.00
2018-03-27T06:01:28.517Z,0.00
2018-03-27T06:02:28.514Z,0.00
2018-03-27T06:03:28.531Z,0.00
2018-03-27T06:04:28.546Z,0.00
2018-03-27T06:05:28.540Z,0.00
2018-03-27T06:06:28.549Z,0.00
2018-03-27T06:07:28.562Z,1.00
2018-03-27T06:08:28.565Z,0.00
2018-03-27T06:09:28.489Z,0.00
2018-03-27T06:10:28.478Z,0.00
2018-03-27T06:11:29.714Z,0.00
2018-03-27T06:12:28.490Z,0.00
2018-03-27T06:13:28.501Z,0.00
2018-03-27T06:14:28.510Z,0.00
2018-03-27T06:15:28.514Z,0.00
2018-03-27T06:16:28.521Z,0.00
2018-03-27T06:17:28.525Z,0.00
2018-03-27T06:18:28.538Z,0.00
2018-03-27T06:19:28.542Z,0.00
2018-03-27T06:20:28.552Z,0.00
2018-03-27T06:21:28.559Z,0.00
2018-03-27T06:22:28.566Z,0.00
2018-03-27T06:23:28.574Z,0.00
2018-03-27T06:24:28.494Z,0.00
2018-03-27T06:25:28.480Z,0.00
2018-03-27T06:26:28.490Z,0.00
2018-03-27T06:27:28.509Z,0.00
2018-03-27T06:28:28.504Z,0.00
2018-03-27T06:29:28.522Z,0.00
2018-03-27T06:30:28.524Z,0.00
2018-03-27T06:31:28.526Z,0.00
2018-03-27T06:32:28.533Z,0.00
2018-03-27T06:33:28.545Z,0.00
2018-03-27T06:34:28.549Z,0.00
2018-03-27T06:35:28.563Z,0.00
2018-03-27T06:36:28.566Z,0.00
2018-03-27T06:37:28.574Z,2.00
2018-03-27T06:38:28.582Z,0.00
2018-03-27T06:39:28.487Z,0.00
2018-03-27T06:40:28.497Z,0.00
2018-03-27T06:41:28.506Z,0.00
2018-03-27T06:42:28.507Z,0.00
2018-03-27T06:43:28.530Z,0.00
2018-03-27T06:44:28.514Z,0.00
2018-03-27T06:45:28.527Z,0.00
2018-03-27T06:46:28.547Z,0.00
2018-03-27T06:47:28.551Z,0.00
2018-03-27T06:48:28.550Z,0.00
2018-03-27T06:49:31.718Z,2.00
2018-03-27T06:50:29.577Z,0.00
2018-03-27T06:51:29.847Z,1.00
2018-03-27T06:52:29.869Z,1.00
2018-03-27T06:53:30.010Z,0.00
2018-03-27T06:54:29.848Z,0.00
2018-03-27T06:55:29.890Z,5.00
2018-03-27T06:56:28.817Z,4.00
2018-03-27T06:57:28.515Z,5.00
2018-03-27T06:58:28.134Z,5.00
2018-03-27T06:59:28.114Z,5.00
2018-03-27T07:00:28.137Z,5.00
2018-03-27T07:01:28.546Z,2.00
2018-03-27T07:02:28.555Z,4.00
2018-03-27T07:03:28.566Z,3.00
2018-03-27T07:04:28.562Z,8.00
2018-03-27T07:05:28.641Z,8.00
2018-03-27T07:06:28.580Z,11.00
2018-03-27T07:07:28.607Z,6.00
2018-03-27T07:08:28.594Z,15.00
2018-03-27T07:09:28.648Z,8.00
2018-03-27T07:10:28.538Z,8.00
2018-03-27T07:11:29.755Z,8.00
2018-03-27T07:12:28.539Z,10.00
2018-03-27T07:13:28.534Z,11.00
2018-03-27T07:14:28.568Z,5.00
2018-03-27T07:15:28.486Z,3.00
2018-03-27T07:16:28.549Z,1.00
2018-03-27T07:17:28.486Z,9.00
2018-03-27T07:18:28.573Z,2.00
2018-03-27T07:19:28.579Z,9.00
2018-03-27T07:20:28.606Z,2.00
2018-03-27T07:21:28.677Z,3.00
2018-03-27T07:22:28.586Z,4.00
2018-03-27T07:23:28.490Z,8.00
2018-03-27T07:24:28.518Z,4.00
2018-03-27T07:25:28.615Z,4.00
2018-03-27T07:26:31.494Z,4.00
2018-03-27T07:27:28.524Z,9.00
2018-03-27T07:28:28.546Z,3.00
2018-03-27T07:29:28.539Z,3.00
2018-03-27T07:30:28.555Z,4.00
2018-03-27T07:31:28.573Z,3.00
2018-03-27T07:32:28.478Z,3.00
2018-03-27T07:33:28.574Z,4.00
2018-03-27T07:34:28.681Z,6.00
2018-03-27T07:35:28.591Z,2.00
2018-03-27T07:36:31.226Z,2.00
2018-03-27T07:37:28.601Z,3.00
2018-03-27T07:38:28.611Z,5.00
2018-03-27T07:39:28.608Z,3.00
2018-03-27T07:40:28.519Z,1.00
2018-03-27T07:41:28.536Z,4.00
2018-03-27T07:42:28.528Z,4.00
2018-03-27T07:43:28.547Z,3.00
2018-03-27T07:44:28.554Z,3.00
2018-03-27T07:45:28.564Z,6.00
2018-03-27T07:46:28.562Z,4.00
2018-03-27T07:47:28.573Z,2.00
2018-03-27T07:48:28.645Z,3.00
2018-03-27T07:49:28.607Z,11.00
2018-03-27T07:50:28.597Z,4.00
2018-03-27T07:51:28.593Z,6.00
2018-03-27T07:52:28.611Z,3.00
2018-03-27T07:53:28.614Z,11.00
2018-03-27T07:54:28.621Z,7.00
2018-03-27T07:55:28.535Z,6.00
2018-03-27T07:56:28.651Z,3.00
2018-03-27T07:57:28.542Z,2.00
2018-03-27T07:58:28.557Z,2.00
2018-03-27T07:59:28.455Z,6.00
2018-03-27T08:00:28.568Z,4.00
2018-03-27T08:01:28.584Z,2.00
2018-03-27T08:02:28.578Z,3.00
2018-03-27T08:03:28.687Z,3.00
2018-03-27T08:04:28.591Z,4.00
2018-03-27T08:05:28.493Z,7.00
2018-03-27T08:06:28.605Z,2.00
2018-03-27T08:07:28.612Z,4.00
2018-03-27T08:08:28.638Z,3.00
2018-03-27T08:09:28.631Z,2.00
2018-03-27T08:10:28.535Z,4.00
2018-03-27T08:11:29.770Z,3.00
2018-03-27T08:12:31.053Z,1.00
2018-03-27T08:13:28.560Z,3.00
2018-03-27T08:14:28.553Z,3.00
2018-03-27T08:15:28.486Z,2.00
2018-03-27T08:16:28.480Z,2.00
2018-03-27T08:17:28.624Z,3.00
2018-03-27T08:18:28.706Z,2.00
2018-03-27T08:19:28.606Z,2.00
2018-03-27T08:20:28.612Z,3.00
2018-03-27T08:21:28.610Z,3.00
2018-03-27T08:22:28.617Z,2.00
2018-03-27T08:23:28.635Z,3.00
2018-03-27T08:24:28.682Z,4.00
2018-03-27T08:25:28.652Z,4.00
2018-03-27T08:26:28.444Z,5.00
2018-03-27T08:27:29.918Z,6.00
2018-03-27T08:28:28.558Z,13.00
2018-03-27T08:29:28.580Z,3.00
2018-03-27T08:30:28.589Z,3.00
2018-03-27T08:31:28.577Z,7.00
2018-03-27T08:32:28.604Z,6.00
2018-03-27T08:33:28.588Z,6.00
2018-03-27T08:34:28.605Z,5.00
2018-03-27T08:35:28.406Z,8.00
2018-03-27T08:36:28.520Z,2.00
2018-03-27T08:37:28.522Z,2.00
2018-03-27T08:38:28.448Z,5.00
2018-03-27T08:39:28.541Z,4.00
2018-03-27T08:40:28.658Z,3.00
2018-03-27T08:41:28.554Z,3.00
2018-03-27T08:42:28.453Z,4.00
2018-03-27T08:43:28.488Z,6.00
2018-03-27T08:44:28.596Z,5.00
2018-03-27T08:45:28.599Z,3.00
2018-03-27T08:46:28.591Z,7.00
2018-03-27T08:47:28.597Z,3.00
2018-03-27T08:48:28.610Z,2.00
2018-03-27T08:49:28.638Z,4.00
2018-03-27T08:50:28.619Z,6.00
2018-03-27T08:51:28.637Z,19.00
2018-03-27T08:52:28.635Z,24.00
2018-03-27T08:53:28.741Z,7.00
2018-03-27T08:54:28.661Z,4.00
2018-03-27T08:55:28.670Z,13.00
2018-03-27T08:56:29.473Z,5.00
2018-03-27T08:57:28.563Z,7.00
2018-03-27T08:58:28.586Z,3.00
2018-03-27T08:59:28.573Z,6.00
2018-03-27T09:00:31.266Z,8.00
2018-03-27T09:01:28.610Z,7.00
2018-03-27T09:02:28.592Z,13.00
2018-03-27T09:03:28.614Z,12.00
2018-03-27T09:04:28.626Z,5.00
2018-03-27T09:05:28.525Z,4.00
2018-03-27T09:06:28.627Z,2.00
2018-03-27T09:07:28.646Z,2.00
2018-03-27T09:08:31.508Z,2.00
2018-03-27T09:09:28.650Z,1.00
2018-03-27T09:10:28.648Z,3.00
2018-03-27T09:11:29.805Z,2.00
2018-03-27T09:12:28.569Z,2.00
2018-03-27T09:13:28.578Z,6.00
2018-03-27T09:14:28.594Z,5.00
2018-03-27T09:15:28.609Z,3.00
2018-03-27T09:16:28.605Z,2.00
2018-03-27T09:17:28.610Z,1.00
2018-03-27T09:18:28.606Z,6.00
2018-03-27T09:19:28.616Z,2.00
2018-03-27T09:20:28.629Z,8.00
2018-03-27T09:21:28.658Z,6.00
2018-03-27T09:22:28.679Z,4.00
2018-03-27T09:23:28.663Z,5.00
2018-03-27T09:24:28.663Z,12.00
2018-03-27T09:25:28.668Z,4.00
2018-03-27T09:26:31.293Z,11.00
2018-03-27T09:27:28.577Z,9.00
2018-03-27T09:28:28.580Z,7.00
2018-03-27T09:29:28.595Z,1.00
2018-03-27T09:30:28.607Z,0.00
2018-03-27T09:31:28.606Z,13.00
2018-03-27T09:32:28.623Z,15.00
2018-03-27T09:33:28.621Z,13.00
2018-03-27T09:34:28.629Z,11.00
2018-03-27T09:35:28.634Z,2.00
2018-03-27T09:36:28.654Z,4.00
2018-03-27T09:37:28.650Z,10.00
2018-03-27T09:38:28.662Z,3.00
2018-03-27T09:39:28.670Z,2.00
2018-03-27T09:40:28.682Z,1.00
2018-03-27T09:41:28.678Z,1.00
2018-03-27T09:42:28.694Z,1.00
2018-03-27T09:43:28.589Z,13.00
2018-03-27T09:44:28.595Z,12.00
2018-03-27T09:45:28.625Z,3.00
2018-03-27T09:46:28.624Z,10.00
2018-03-27T09:47:28.622Z,6.00
2018-03-27T09:48:28.666Z,5.00
2018-03-27T09:49:28.633Z,12.00
2018-03-27T09:50:28.645Z,6.00
2018-03-27T09:51:31.303Z,11.00
2018-03-27T09:52:28.667Z,19.00
2018-03-27T09:53:28.665Z,4.00
2018-03-27T09:54:28.678Z,5.00
2018-03-27T09:55:28.686Z,14.00
2018-03-27T09:56:28.680Z,8.00
2018-03-27T09:57:28.689Z,10.00
2018-03-27T09:58:28.637Z,19.00
2018-03-27T09:59:28.613Z,5.00
2018-03-27T10:00:28.618Z,6.00
2018-03-27T10:01:28.618Z,2.00
2018-03-27T10:02:28.628Z,10.00
2018-03-27T10:03:28.634Z,19.00
2018-03-27T10:04:31.318Z,8.00
2018-03-27T10:05:28.657Z,2.00
2018-03-27T10:06:28.663Z,4.00
2018-03-27T10:07:28.673Z,12.00
2018-03-27T10:08:28.678Z,8.00
2018-03-27T10:09:28.682Z,11.00
2018-03-27T10:10:28.694Z,6.00
2018-03-27T10:11:32.473Z,7.00
2018-03-27T10:12:28.706Z,4.00
2018-03-27T10:13:28.606Z,0.00
2018-03-27T10:14:28.618Z,0.00
2018-03-27T10:15:28.626Z,1.00
2018-03-27T10:16:28.626Z,4.00
2018-03-27T10:17:28.629Z,2.00
2018-03-27T10:18:28.650Z,4.00
2018-03-27T10:19:28.650Z,13.00
2018-03-27T10:20:28.662Z,15.00
2018-03-27T10:21:28.678Z,15.00
2018-03-27T10:22:28.770Z,6.00
2018-03-27T10:23:28.680Z,3.00
2018-03-27T10:24:28.698Z,3.00
2018-03-27T10:25:28.698Z,5.00
2018-03-27T10:26:28.708Z,7.00
2018-03-27T10:27:28.725Z,6.00
2018-03-27T10:28:28.735Z,27.00
2018-03-27T10:29:28.617Z,8.00
2018-03-27T10:30:28.519Z,16.00
2018-03-27T10:31:28.646Z,16.00
2018-03-27T10:32:28.646Z,5.00
2018-03-27T10:33:28.649Z,9.00
2018-03-27T10:34:28.663Z,22.00
2018-03-27T10:35:28.768Z,12.00
2018-03-27T10:36:28.703Z,11.00
2018-03-27T10:37:28.686Z,8.00
2018-03-27T10:38:28.704Z,5.00
2018-03-27T10:39:31.350Z,5.00
2018-03-27T10:40:28.696Z,12.00
2018-03-27T10:41:28.711Z,24.00
2018-03-27T10:42:28.719Z,7.00
2018-03-27T10:43:28.616Z,9.00
2018-03-27T10:44:28.665Z,29.00
2018-03-27T10:45:28.687Z,7.00
2018-03-27T10:46:28.642Z,9.00
2018-03-27T10:47:28.650Z,9.00
2018-03-27T10:48:28.652Z,13.00
2018-03-27T10:49:28.666Z,3.00
2018-03-27T10:50:28.568Z,6.00
2018-03-27T10:51:28.475Z,9.00
2018-03-27T10:52:28.682Z,26.00
2018-03-27T10:53:28.720Z,12.00
2018-03-27T10:54:28.695Z,34.00
2018-03-27T10:55:28.713Z,12.00
2018-03-27T10:56:28.711Z,14.00
2018-03-27T10:57:28.737Z,14.00
2018-03-27T10:58:28.726Z,14.00
2018-03-27T10:59:28.743Z,12.00
2018-03-27T11:00:28.650Z,17.00
2018-03-27T11:01:28.648Z,23.00
2018-03-27T11:02:28.657Z,18.00
2018-03-27T11:03:28.566Z,18.00
2018-03-27T11:04:28.672Z,35.00
2018-03-27T11:05:28.679Z,15.00
2018-03-27T11:06:28.710Z,10.00
2018-03-27T11:07:28.699Z,31.00
2018-03-27T11:08:28.703Z,18.00
2018-03-27T11:09:28.712Z,9.00
2018-03-27T11:10:30.869Z,9.00
2018-03-27T11:11:29.855Z,5.00
2018-03-27T11:12:28.720Z,6.00
2018-03-27T11:13:28.743Z,18.00
2018-03-27T11:14:29.738Z,12.00
2018-03-27T11:15:29.639Z,13.00
2018-03-27T11:16:30.890Z,11.00
2018-03-27T11:17:29.345Z,22.00
2018-03-27T11:18:30.201Z,15.00
2018-03-27T11:19:29.668Z,15.00
2018-03-27T11:20:29.872Z,27.00
2018-03-27T11:21:30.017Z,36.00
2018-03-27T11:22:29.876Z,11.00
2018-03-27T11:23:29.848Z,16.00
2018-03-27T11:24:29.858Z,14.00
2018-03-27T11:25:29.751Z,34.00
2018-03-27T11:26:29.619Z,12.00
2018-03-27T11:27:29.985Z,29.00
2018-03-27T11:28:29.914Z,10.00
2018-03-27T11:29:30.008Z,9.00
2018-03-27T11:30:30.110Z,13.00
2018-03-27T11:31:30.177Z,26.00
2018-03-27T11:32:30.123Z,21.00
2018-03-27T11:33:29.811Z,15.00
2018-03-27T11:34:29.723Z,50.00
2018-03-27T11:35:29.797Z,22.00
2018-03-27T11:36:29.826Z,25.00
2018-03-27T11:37:29.665Z,23.00
2018-03-27T11:38:29.923Z,42.00
2018-03-27T11:39:29.862Z,40.00
2018-03-27T11:40:29.698Z,36.00
2018-03-27T11:41:29.826Z,28.00
2018-03-27T11:42:29.828Z,57.00
2018-03-27T11:43:29.751Z,38.00
2018-03-27T11:44:29.444Z,30.00
2018-03-27T11:45:29.933Z,37.00
2018-03-27T11:46:29.661Z,10.00
2018-03-27T11:47:29.559Z,23.00
2018-03-27T11:48:29.848Z,16.00
2018-03-27T11:49:29.756Z,16.00
2018-03-27T11:50:29.683Z,15.00
2018-03-27T11:51:30.130Z,34.00
2018-03-27T11:52:30.428Z,15.00
2018-03-27T11:53:30.055Z,15.00
2018-03-27T11:54:30.177Z,14.00
2018-03-27T11:55:30.044Z,23.00
2018-03-27T11:56:30.000Z,30.00
2018-03-27T11:57:29.896Z,14.00
2018-03-27T11:58:29.597Z,14.00
2018-03-27T11:59:29.483Z,11.00
2018-03-27T12:00:29.623Z,32.00
2018-03-27T12:01:29.746Z,29.00
2018-03-27T12:02:29.630Z,15.00
2018-03-27T12:03:29.547Z,52.00
2018-03-27T12:04:29.633Z,33.00
2018-03-27T12:05:29.434Z,31.00
2018-03-27T12:06:29.623Z,28.00
2018-03-27T12:07:29.743Z,37.00
2018-03-27T12:08:28.725Z,41.00
2018-03-27T12:09:28.529Z,56.00
2018-03-27T12:10:28.633Z,51.00
2018-03-27T12:11:29.773Z,29.00
2018-03-27T12:12:28.758Z,43.00
2018-03-27T12:13:28.768Z,34.00
2018-03-27T12:14:28.766Z,46.00
2018-03-27T12:15:28.674Z,53.00
2018-03-27T12:16:28.681Z,49.00
2018-03-27T12:17:28.691Z,51.00
2018-03-27T12:18:28.694Z,22.00
2018-03-27T12:19:28.702Z,32.00
2018-03-27T12:20:28.722Z,30.00
2018-03-27T12:21:28.718Z,46.00
2018-03-27T12:22:28.735Z,57.00
2018-03-27T12:23:28.742Z,56.00
2018-03-27T12:24:28.743Z,55.00
2018-03-27T12:25:28.747Z,49.00
2018-03-27T12:26:28.761Z,41.00
2018-03-27T12:27:28.763Z,30.00
2018-03-27T12:28:28.774Z,43.00
2018-03-27T12:29:28.785Z,67.00
2018-03-27T12:30:28.687Z,61.00
2018-03-27T12:31:28.694Z,49.00
2018-03-27T12:32:28.801Z,60.00
2018-03-27T12:33:28.714Z,44.00
2018-03-27T12:34:28.715Z,59.00
2018-03-27T12:35:28.722Z,23.00
2018-03-27T12:36:29.555Z,61.00
2018-03-27T12:37:29.808Z,51.00
2018-03-27T12:38:29.315Z,53.00
2018-03-27T12:39:29.642Z,17.00
2018-03-27T12:40:29.814Z,39.00
2018-03-27T12:41:29.785Z,47.00
2018-03-27T12:42:29.608Z,49.00
2018-03-27T12:43:29.875Z,58.00
2018-03-27T12:44:29.672Z,77.00
2018-03-27T12:45:29.727Z,76.00
2018-03-27T12:46:29.897Z,56.00
2018-03-27T12:47:28.697Z,38.00
2018-03-27T12:48:28.715Z,30.00
2018-03-27T12:49:28.331Z,50.00
2018-03-27T12:50:28.726Z,61.00
2018-03-27T12:51:28.743Z,66.00
2018-03-27T12:52:28.841Z,68.00
2018-03-27T12:53:28.755Z,55.00
2018-03-27T12:54:28.760Z,55.00
2018-03-27T12:55:28.778Z,46.00
2018-03-27T12:56:28.782Z,64.00
2018-03-27T12:57:28.783Z,55.00
2018-03-27T12:58:28.790Z,54.00
2018-03-27T12:59:28.745Z,57.00
2018-03-27T13:00:28.698Z,52.00
2018-03-27T13:01:28.607Z,58.00
2018-03-27T13:02:28.718Z,46.00
2018-03-27T13:03:28.623Z,64.00
2018-03-27T13:04:28.740Z,49.00
2018-03-27T13:05:28.746Z,21.00
2018-03-27T13:06:28.746Z,44.00
2018-03-27T13:07:28.756Z,21.00
2018-03-27T13:08:28.761Z,17.00
2018-03-27T13:09:28.779Z,15.00
2018-03-27T13:10:28.766Z,20.00
2018-03-27T13:11:30.019Z,30.00
2018-03-27T13:12:29.813Z,21.00
2018-03-27T13:13:28.791Z,33.00